Time;durP1;ratioP1;P1;durP2;ratioP2;P2;SDS_P1;SDS_P2;PMS_P1;PMS_P2;Temp;Humidity;BMP_temperature;BMP_pressure;BME280_temperature;BME280_humidity;BME280_pressure;Samples;Min_cycle;Max_cycle;Signal;HPM_P1;HPM_P2
2024/03/01 00:00:34;;;;;;;;;;;18.60;43.50;;;;;;1509612;77;1137;-77
2024/03/01 00:02:36;;;;;;;;;;;18.60;43.50;;;;;;1513338;77;1916;-76
2024/03/01 00:04:37;;;;;;;;;;;18.60;43.50;;;;;;1509428;78;560;-77
2024/03/01 00:06:39;;;;;;;;;;;18.60;43.50;;;;;;1516534;78;675;-71
2024/03/01 00:08:41;;;;;;;;;;;18.60;43.50;;;;;;1506778;78;729;-71
2024/03/01 00:10:43;;;;;;;;;;;18.60;43.50;;;;;;1508383;77;1144;-75
2024/03/01 00:12:45;;;;;;;;;;;18.50;43.50;;;;;;1508600;77;1355;-76
2024/03/01 00:14:47;;;;;;;;;;;18.60;43.50;;;;;;1513978;78;639;-76
2024/03/01 00:16:49;;;;;;;;;;;18.60;43.50;;;;;;1509648;78;666;-76
2024/03/01 00:18:51;;;;;;;;;;;18.60;43.50;;;;;;1518724;77;573;-76
2024/03/01 00:20:53;;;;;;;;;;;18.60;43.50;;;;;;1518386;78;1151;-75
2024/03/01 00:22:55;;;;;;;;;;;18.60;43.40;;;;;;1520190;78;1949;-76
2024/03/01 00:24:57;;;;;;;;;;;18.60;43.40;;;;;;1512447;78;772;-77
2024/03/01 00:26:59;;;;;;;;;;;18.50;43.50;;;;;;1511973;78;1487;-73
2024/03/01 00:29:01;;;;;;;;;;;18.60;43.40;;;;;;1509940;78;660;-76
2024/03/01 00:31:03;;;;;;;;;;;18.60;43.50;;;;;;1513766;78;1136;-77
2024/03/01 00:33:05;;;;;;;;;;;18.60;43.50;;;;;;1514715;77;684;-74
2024/03/01 00:35:07;;;;;;;;;;;18.60;43.50;;;;;;1508919;78;810;-76
2024/03/01 00:37:09;;;;;;;;;;;18.60;43.50;;;;;;1516629;78;679;-78
2024/03/01 00:39:11;;;;;;;;;;;18.60;43.40;;;;;;1518426;78;882;-75
2024/03/01 00:41:12;;;;;;;;;;;18.60;43.50;;;;;;1511683;78;1542;-75
2024/03/01 00:43:14;;;;;;;;;;;18.60;43.40;;;;;;1512001;77;1921;-75
2024/03/01 00:45:16;;;;;;;;;;;18.60;43.40;;;;;;1513816;78;691;-77
2024/03/01 00:47:18;;;;;;;;;;;18.60;43.40;;;;;;1508389;78;692;-77
2024/03/01 00:49:20;;;;;;;;;;;18.60;43.40;;;;;;1519517;78;702;-77
2024/03/01 00:51:22;;;;;;;;;;;18.60;43.40;;;;;;1513456;78;1155;-77
2024/03/01 00:53:24;;;;;;;;;;;18.60;43.40;;;;;;1516446;78;657;-76
2024/03/01 00:55:26;;;;;;;;;;;18.60;43.40;;;;;;1507935;77;1432;-74
2024/03/01 00:57:28;;;;;;;;;;;18.60;43.40;;;;;;1511702;78;838;-75
2024/03/01 00:59:30;;;;;;;;;;;18.60;43.40;;;;;;1509258;78;745;-77
2024/03/01 01:01:32;;;;;;;;;;;18.60;43.40;;;;;;1509489;77;1177;-76
2024/03/01 01:03:34;;;;;;;;;;;18.60;43.40;;;;;;1519961;77;1928;-75
2024/03/01 01:05:35;;;;;;;;;;;18.60;43.40;;;;;;1515586;78;675;-72
2024/03/01 01:07:37;;;;;;;;;;;18.60;43.40;;;;;;1514181;78;680;-72
2024/03/01 01:09:39;;;;;;;;;;;18.60;43.40;;;;;;1512895;78;1524;-75
2024/03/01 01:11:41;;;;;;;;;;;18.60;43.40;;;;;;1512622;78;1151;-70
2024/03/01 01:13:43;;;;;;;;;;;18.60;43.40;;;;;;1508762;78;1060;-74
2024/03/01 01:15:45;;;;;;;;;;;18.60;43.40;;;;;;1511737;77;710;-73
2024/03/01 01:17:47;;;;;;;;;;;18.60;43.40;;;;;;1512962;78;737;-76
2024/03/01 01:19:49;;;;;;;;;;;18.60;43.40;;;;;;1513890;77;729;-76
2024/03/01 01:21:50;;;;;;;;;;;18.60;43.40;;;;;;1517457;78;1189;-77
2024/03/01 01:23:52;;;;;;;;;;;18.60;43.40;;;;;;1514298;78;1941;-75
2024/03/01 01:25:54;;;;;;;;;;;18.60;43.40;;;;;;1512287;77;725;-77
2024/03/01 01:27:56;;;;;;;;;;;18.60;43.40;;;;;;1519331;78;759;-75
2024/03/01 01:29:58;;;;;;;;;;;18.60;43.40;;;;;;1514060;77;1116;-74
2024/03/01 01:32:00;;;;;;;;;;;18.60;43.40;;;;;;1511117;77;650;-76
2024/03/01 01:34:02;;;;;;;;;;;18.60;43.40;;;;;;1513904;78;795;-74
2024/03/01 01:36:05;;;;;;;;;;;18.60;43.40;;;;;;1508176;78;704;-75
2024/03/01 01:38:07;;;;;;;;;;;18.70;43.50;;;;;;1514989;78;1515;-78
2024/03/01 01:40:11;;;;;;;;;;;18.60;43.40;;;;;;1510434;78;1117;-75
2024/03/01 01:42:13;;;;;;;;;;;18.60;43.40;;;;;;1515083;78;1940;-75
2024/03/01 01:44:15;;;;;;;;;;;18.60;43.40;;;;;;1515093;77;794;-75
2024/03/01 01:46:17;;;;;;;;;;;18.60;43.40;;;;;;1514199;77;637;-78
2024/03/01 01:48:19;;;;;;;;;;;18.70;43.50;;;;;;1505568;77;923;-77
2024/03/01 01:50:21;;;;;;;;;;;18.70;43.50;;;;;;1514063;77;1532;-76
2024/03/01 01:52:23;;;;;;;;;;;18.60;43.40;;;;;;1512577;78;753;-77
2024/03/01 01:54:25;;;;;;;;;;;18.60;43.30;;;;;;1508632;77;756;-77
2024/03/01 01:56:27;;;;;;;;;;;18.60;43.40;;;;;;1516628;78;623;-72
2024/03/01 01:58:29;;;;;;;;;;;18.70;43.50;;;;;;1511618;78;690;-77
2024/03/01 02:00:31;;;;;;;;;;;18.60;43.40;;;;;;1513271;78;1184;-75
2024/03/01 02:02:33;;;;;;;;;;;18.60;43.40;;;;;;1504624;77;1934;-77
2024/03/01 02:04:35;;;;;;;;;;;18.60;43.40;;;;;;1512445;78;1342;-77
2024/03/01 02:06:37;;;;;;;;;;;18.60;43.40;;;;;;1503982;77;736;-78
2024/03/01 02:08:39;;;;;;;;;;;18.70;43.40;;;;;;1510133;78;594;-72
2024/03/01 02:10:41;;;;;;;;;;;18.60;43.40;;;;;;1514278;78;1237;-77
2024/03/01 02:13:01;;;;;;;;;;;18.60;43.40;;;;;;1508539;77;734;-77
2024/03/01 02:15:08;;;;;;;;;;;18.60;43.30;;;;;;1537883;77;1112;-77
2024/03/01 02:17:07;;;;;;;;;;;18.60;43.40;;;;;;1541311;77;1433;-76
2024/03/01 02:19:10;;;;;;;;;;;18.60;43.40;;;;;;1537061;77;1435;-77
2024/03/01 02:21:12;;;;;;;;;;;18.70;43.50;;;;;;1530178;77;1229;-75
2024/03/01 02:23:16;;;;;;;;;;;18.60;43.30;;;;;;1537117;77;1921;-78
2024/03/01 02:25:17;;;;;;;;;;;18.60;43.40;;;;;;1538027;77;1377;-72
2024/03/01 02:27:19;;;;;;;;;;;18.60;43.30;;;;;;1537534;77;592;-73
2024/03/01 02:29:21;;;;;;;;;;;18.60;43.40;;;;;;1530179;77;618;-77
2024/03/01 02:31:23;;;;;;;;;;;18.60;43.30;;;;;;1529018;77;1163;-76
2024/03/01 02:33:25;;;;;;;;;;;18.70;43.40;;;;;;1533875;77;1589;-74
2024/03/01 02:35:27;;;;;;;;;;;18.70;43.40;;;;;;1534412;77;651;-77
2024/03/01 02:37:29;;;;;;;;;;;18.70;43.40;;;;;;1542704;77;700;-76
2024/03/01 02:39:31;;;;;;;;;;;18.60;43.30;;;;;;1540302;77;674;-75
2024/03/01 02:41:33;;;;;;;;;;;18.60;43.30;;;;;;1540099;77;1165;-76
2024/03/01 02:43:35;;;;;;;;;;;18.70;43.40;;;;;;1547198;77;1920;-76
2024/03/01 02:45:36;;;;;;;;;;;18.70;43.50;;;;;;1547145;77;723;-75
2024/03/01 02:47:38;;;;;;;;;;;18.60;43.30;;;;;;1534320;77;1604;-77
2024/03/01 02:49:41;;;;;;;;;;;18.70;43.40;;;;;;1527648;77;711;-74
2024/03/01 02:51:42;;;;;;;;;;;18.60;43.30;;;;;;1538308;77;1182;-74
2024/03/01 02:53:45;;;;;;;;;;;18.70;43.40;;;;;;1541372;77;717;-77
2024/03/01 02:55:47;;;;;;;;;;;18.60;43.30;;;;;;1536666;77;616;-72
2024/03/01 02:57:52;;;;;;;;;;;18.70;43.40;;;;;;1530617;77;665;-77
2024/03/01 02:59:54;;;;;;;;;;;18.70;43.40;;;;;;1523787;77;668;-76
2024/03/01 03:01:56;;;;;;;;;;;18.70;43.40;;;;;;1532113;77;1394;-77
2024/03/01 03:03:58;;;;;;;;;;;18.60;43.30;;;;;;1541114;77;1950;-77
2024/03/01 03:06:00;;;;;;;;;;;18.70;43.40;;;;;;1529187;77;581;-75
2024/03/01 03:08:05;;;;;;;;;;;18.70;43.40;;;;;;1543194;77;678;-76
2024/03/01 03:10:05;;;;;;;;;;;18.60;43.20;;;;;;1537670;77;1755;-76
2024/03/01 03:12:07;;;;;;;;;;;18.70;43.40;;;;;;1538488;77;716;-77
2024/03/01 03:14:10;;;;;;;;;;;18.70;43.40;;;;;;1541338;77;1081;-74
2024/03/01 03:16:11;;;;;;;;;;;18.70;43.40;;;;;;1526657;77;1458;-76
2024/03/01 03:18:14;;;;;;;;;;;18.60;43.20;;;;;;1536875;77;594;-71
2024/03/01 03:20:18;;;;;;;;;;;18.70;43.40;;;;;;1536210;77;1222;-77
2024/03/01 03:22:21;;;;;;;;;;;18.60;43.30;;;;;;1534385;77;701;-76
2024/03/01 03:24:23;;;;;;;;;;;18.60;43.30;;;;;;1531672;77;1898;-77
2024/03/01 03:26:25;;;;;;;;;;;18.70;43.40;;;;;;1527569;77;681;-76
2024/03/01 03:28:27;;;;;;;;;;;18.70;43.40;;;;;;1533528;77;716;-75
2024/03/01 03:30:29;;;;;;;;;;;18.60;43.30;;;;;;1534504;77;1667;-76
2024/03/01 03:32:31;;;;;;;;;;;18.60;43.30;;;;;;1541802;77;598;-77
2024/03/01 03:34:36;;;;;;;;;;;18.70;43.40;;;;;;1537996;77;679;-78
2024/03/01 03:36:36;;;;;;;;;;;18.60;43.30;;;;;;1536403;77;1093;-77
2024/03/01 03:38:38;;;;;;;;;;;18.60;43.20;;;;;;1532789;77;676;-75
2024/03/01 03:40:40;;;;;;;;;;;18.70;43.40;;;;;;1540216;77;1187;-77
2024/03/01 03:42:42;;;;;;;;;;;18.60;43.20;;;;;;1538844;77;715;-75
2024/03/01 03:44:44;;;;;;;;;;;18.60;43.30;;;;;;1528196;77;1944;-74
2024/03/01 03:46:47;;;;;;;;;;;18.60;43.20;;;;;;1532788;77;736;-74
2024/03/01 03:48:49;;;;;;;;;;;18.70;43.40;;;;;;1540575;77;732;-77
2024/03/01 03:50:51;;;;;;;;;;;18.70;43.40;;;;;;1545709;76;1182;-77
2024/03/01 03:52:52;;;;;;;;;;;18.60;43.30;;;;;;1527661;77;726;-77
2024/03/01 03:54:54;;;;;;;;;;;18.60;43.30;;;;;;1536351;77;730;-74
2024/03/01 03:56:56;;;;;;;;;;;18.70;43.40;;;;;;1537116;77;719;-77
2024/03/01 03:58:58;;;;;;;;;;;18.60;43.30;;;;;;1534111;77;640;-76
2024/03/01 04:01:00;;;;;;;;;;;18.60;43.20;;;;;;1539788;77;1146;-76
2024/03/01 04:03:03;;;;;;;;;;;18.70;43.40;;;;;;1538377;77;1940;-76
2024/03/01 04:05:05;;;;;;;;;;;18.60;43.20;;;;;;1523394;77;724;-73
2024/03/01 04:07:07;;;;;;;;;;;18.70;43.40;;;;;;1540700;77;721;-71
2024/03/01 04:09:10;;;;;;;;;;;18.60;43.20;;;;;;1546112;77;743;-79
2024/03/01 04:11:11;;;;;;;;;;;18.60;43.20;;;;;;1536401;77;1125;-74
2024/03/01 04:13:13;;;;;;;;;;;18.70;43.30;;;;;;1537142;77;750;-76
2024/03/01 04:15:15;;;;;;;;;;;18.60;43.20;;;;;;1533678;77;1129;-79
2024/03/01 04:17:17;;;;;;;;;;;18.70;43.40;;;;;;1535787;77;753;-76
2024/03/01 04:19:19;;;;;;;;;;;18.70;43.30;;;;;;1539547;77;674;-72
2024/03/01 04:21:21;;;;;;;;;;;18.70;43.40;;;;;;1538118;77;1146;-76
2024/03/01 04:23:23;;;;;;;;;;;18.60;43.20;;;;;;1528176;77;1929;-77
2024/03/01 04:25:27;;;;;;;;;;;18.70;43.30;;;;;;1536123;77;725;-76
2024/03/01 04:27:30;;;;;;;;;;;18.70;43.30;;;;;;1531505;77;1187;-76
2024/03/01 04:29:32;;;;;;;;;;;18.70;43.30;;;;;;1540468;76;732;-76
2024/03/01 04:31:35;;;;;;;;;;;18.60;43.20;;;;;;1538060;77;1141;-74
2024/03/01 04:33:39;;;;;;;;;;;18.70;43.30;;;;;;1534546;77;706;-75
2024/03/01 04:35:41;;;;;;;;;;;18.70;43.30;;;;;;1538766;77;1151;-77
2024/03/01 04:37:44;;;;;;;;;;;18.60;43.20;;;;;;1529164;77;737;-77
2024/03/01 04:39:46;;;;;;;;;;;18.60;43.10;;;;;;1539521;77;760;-76
2024/03/01 04:41:48;;;;;;;;;;;18.70;43.30;;;;;;1542272;77;1233;-76
2024/03/01 04:43:50;;;;;;;;;;;18.60;43.10;;;;;;1531758;77;1931;-75
2024/03/01 04:45:53;;;;;;;;;;;18.70;43.30;;;;;;1526120;77;700;-76
2024/03/01 04:47:55;;;;;;;;;;;18.70;43.30;;;;;;1527720;77;689;-77
2024/03/01 04:49:56;;;;;;;;;;;18.70;43.30;;;;;;1536023;77;856;-76
2024/03/01 04:51:58;;;;;;;;;;;18.60;43.10;;;;;;1536504;77;671;-78
2024/03/01 04:54:00;;;;;;;;;;;18.60;43.10;;;;;;1528060;77;698;-72
2024/03/01 04:56:02;;;;;;;;;;;18.60;43.10;;;;;;1546853;77;721;-77
2024/03/01 04:58:04;;;;;;;;;;;18.60;43.10;;;;;;1535067;77;678;-79
2024/03/01 05:00:20;;;;;;;;;;;18.70;43.20;;;;;;1544442;76;1127;-77
2024/03/01 05:02:10;;;;;;;;;;;18.70;43.20;;;;;;1531936;77;1191;-79
2024/03/01 05:04:12;;;;;;;;;;;18.70;43.20;;;;;;1529339;77;1940;-74
2024/03/01 05:06:13;;;;;;;;;;;18.60;43.10;;;;;;1531500;77;602;-75
2024/03/01 05:08:15;;;;;;;;;;;18.60;43.10;;;;;;1531999;77;671;-76
2024/03/01 05:10:23;;;;;;;;;;;18.70;43.20;;;;;;1533504;77;1174;-76
2024/03/01 05:12:25;;;;;;;;;;;18.60;43.10;;;;;;1541210;77;535;-77
2024/03/01 05:14:27;;;;;;;;;;;18.70;43.20;;;;;;1537541;77;806;-73
2024/03/01 05:16:29;;;;;;;;;;;18.70;43.20;;;;;;1522398;77;1125;-75
2024/03/01 05:18:31;;;;;;;;;;;18.70;43.20;;;;;;1518992;77;841;-73
2024/03/01 05:20:33;;;;;;;;;;;18.60;43.10;;;;;;1523269;77;1191;-76
2024/03/01 05:22:38;;;;;;;;;;;18.70;43.20;;;;;;1516974;77;802;-74
2024/03/01 05:24:40;;;;;;;;;;;18.60;43.10;;;;;;1520444;77;1932;-75
2024/03/01 05:26:42;;;;;;;;;;;18.70;43.30;;;;;;1519806;77;723;-75
2024/03/01 05:28:43;;;;;;;;;;;18.70;43.30;;;;;;1519767;77;640;-77
2024/03/01 05:30:45;;;;;;;;;;;18.60;43.10;;;;;;1523736;77;1160;-77
2024/03/01 05:32:48;;;;;;;;;;;18.60;43.10;;;;;;1505071;77;792;-71
2024/03/01 05:34:50;;;;;;;;;;;18.70;43.20;;;;;;1520630;77;667;-73
2024/03/01 05:36:52;;;;;;;;;;;18.60;43.10;;;;;;1515330;77;768;-74
2024/03/01 05:38:53;;;;;;;;;;;18.70;43.20;;;;;;1521328;77;747;-79
2024/03/01 05:40:58;;;;;;;;;;;18.70;43.20;;;;;;1522122;77;1273;-75
2024/03/01 05:42:59;;;;;;;;;;;18.60;43.10;;;;;;1525911;77;1415;-76
2024/03/01 05:45:01;;;;;;;;;;;18.70;43.20;;;;;;1523990;77;1933;-75
2024/03/01 05:47:04;;;;;;;;;;;18.70;43.20;;;;;;1519123;77;808;-75
2024/03/01 05:49:06;;;;;;;;;;;18.70;43.20;;;;;;1524343;77;700;-74
2024/03/01 05:51:11;;;;;;;;;;;18.70;43.20;;;;;;1520064;77;1144;-76
2024/03/01 05:53:15;;;;;;;;;;;18.70;43.20;;;;;;1519818;77;1116;-74
2024/03/01 05:55:14;;;;;;;;;;;18.70;43.30;;;;;;1524402;77;1431;-77
2024/03/01 05:57:16;;;;;;;;;;;18.70;43.30;;;;;;1527012;77;770;-76
2024/03/01 05:59:22;;;;;;;;;;;18.80;43.20;;;;;;1525115;77;577;-78
2024/03/01 06:01:22;;;;;;;;;;;18.70;43.30;;;;;;1523941;77;1409;-75
2024/03/01 06:03:24;;;;;;;;;;;18.70;43.20;;;;;;1528860;77;969;-77
2024/03/01 06:05:26;;;;;;;;;;;18.80;43.20;;;;;;1520078;77;1923;-74
2024/03/01 06:07:28;;;;;;;;;;;18.80;43.20;;;;;;1520542;77;816;-74
2024/03/01 06:09:30;;;;;;;;;;;18.70;43.20;;;;;;1527749;77;711;-75
2024/03/01 06:11:32;;;;;;;;;;;18.70;43.30;;;;;;1526005;77;1138;-76
2024/03/01 06:13:33;;;;;;;;;;;18.80;43.20;;;;;;1516142;77;644;-71
2024/03/01 06:15:35;;;;;;;;;;;18.80;43.30;;;;;;1515745;77;772;-76
2024/03/01 06:17:37;;;;;;;;;;;18.80;43.20;;;;;;1510201;78;947;-78
2024/03/01 06:19:39;;;;;;;;;;;18.80;43.20;;;;;;1511651;78;754;-72
2024/03/01 06:21:41;;;;;;;;;;;18.80;43.30;;;;;;1515044;77;1159;-76
2024/03/01 06:23:43;;;;;;;;;;;18.70;43.20;;;;;;1503232;78;818;-77
2024/03/01 06:25:45;;;;;;;;;;;18.80;43.20;;;;;;1520295;78;1918;-75
2024/03/01 06:27:48;;;;;;;;;;;18.80;43.20;;;;;;1511452;77;736;-76
2024/03/01 06:29:49;;;;;;;;;;;18.80;43.20;;;;;;1512069;77;780;-76
2024/03/01 06:31:51;;;;;;;;;;;18.70;43.20;;;;;;1506664;78;1441;-72
2024/03/01 06:33:53;;;;;;;;;;;18.80;43.20;;;;;;1509742;78;741;-77
2024/03/01 06:35:55;;;;;;;;;;;18.80;43.20;;;;;;1521329;78;737;-76
2024/03/01 06:37:57;;;;;;;;;;;18.70;43.20;;;;;;1514307;78;730;-77
2024/03/01 06:40:00;;;;;;;;;;;18.80;43.20;;;;;;1509391;78;1586;-76
2024/03/01 06:42:02;;;;;;;;;;;18.80;43.10;;;;;;1511676;78;781;-74
2024/03/01 06:44:05;;;;;;;;;;;18.80;43.20;;;;;;1510352;77;1913;-76
2024/03/01 06:46:07;;;;;;;;;;;18.70;43.20;;;;;;1508988;78;743;-76
2024/03/01 06:48:09;;;;;;;;;;;18.80;43.10;;;;;;1518808;77;766;-75
2024/03/01 06:50:11;;;;;;;;;;;18.80;43.20;;;;;;1517250;77;1290;-74
2024/03/01 06:52:13;;;;;;;;;;;18.80;43.20;;;;;;1514873;78;691;-75
2024/03/01 06:54:15;;;;;;;;;;;18.80;43.20;;;;;;1515566;77;796;-76
2024/03/01 06:56:16;;;;;;;;;;;18.70;43.20;;;;;;1501137;78;828;-76
2024/03/01 06:58:18;;;;;;;;;;;18.80;43.10;;;;;;1518323;78;735;-77
2024/03/01 07:00:20;;;;;;;;;;;18.80;43.20;;;;;;1517788;78;1115;-75
2024/03/01 07:02:22;;;;;;;;;;;18.80;43.20;;;;;;1513501;78;677;-76
2024/03/01 07:04:24;;;;;;;;;;;18.80;43.20;;;;;;1504769;78;1958;-77
2024/03/01 07:06:26;;;;;;;;;;;18.80;43.20;;;;;;1512416;77;783;-76
2024/03/01 07:08:28;;;;;;;;;;;18.70;43.20;;;;;;1521192;78;585;-75
2024/03/01 07:10:30;;;;;;;;;;;18.70;43.20;;;;;;1514877;77;1227;-76
2024/03/01 07:12:32;;;;;;;;;;;18.80;43.10;;;;;;1516232;78;627;-75
2024/03/01 07:14:34;;;;;;;;;;;18.80;43.20;;;;;;1506510;78;667;-76
2024/03/01 07:16:36;;;;;;;;;;;18.80;43.20;;;;;;1499208;78;1142;-76
2024/03/01 07:18:37;;;;;;;;;;;18.80;43.10;;;;;;1505818;77;588;-72
2024/03/01 07:20:39;;;;;;;;;;;18.70;43.20;;;;;;1516155;78;1188;-75
2024/03/01 07:22:41;;;;;;;;;;;18.80;43.10;;;;;;1504234;78;681;-71
2024/03/01 07:24:43;;;;;;;;;;;18.80;43.10;;;;;;1503163;78;1930;-71
2024/03/01 07:26:45;;;;;;;;;;;18.70;43.10;;;;;;1505563;78;730;-76
2024/03/01 07:28:47;;;;;;;;;;;18.70;43.10;;;;;;1510137;78;821;-76
2024/03/01 07:30:49;;;;;;;;;;;18.80;43.20;;;;;;1510141;77;1117;-76
2024/03/01 07:32:53;;;;;;;;;;;18.80;43.10;;;;;;1518126;78;710;-74
2024/03/01 07:34:55;;;;;;;;;;;18.80;43.20;;;;;;1516827;77;597;-77
2024/03/01 07:36:58;;;;;;;;;;;18.80;43.10;;;;;;1500161;78;718;-75
2024/03/01 07:39:00;;;;;;;;;;;18.80;43.10;;;;;;1516585;78;1370;-76
2024/03/01 07:41:01;;;;;;;;;;;18.80;43.10;;;;;;1511285;78;1125;-75
2024/03/01 07:43:04;;;;;;;;;;;18.70;43.10;;;;;;1508642;78;586;-73
2024/03/01 07:45:07;;;;;;;;;;;18.80;43.10;;;;;;1513505;78;1917;-76
2024/03/01 07:47:08;;;;;;;;;;;18.80;43.10;;;;;;1508358;77;661;-77
2024/03/01 07:49:10;;;;;;;;;;;18.80;43.10;;;;;;1506697;78;694;-77
2024/03/01 07:51:13;;;;;;;;;;;18.80;43.10;;;;;;1508518;78;1147;-74
2024/03/01 07:53:15;;;;;;;;;;;18.70;43.20;;;;;;1518559;77;706;-76
2024/03/01 07:55:17;;;;;;;;;;;18.70;43.10;;;;;;1518727;77;726;-76
2024/03/01 07:57:19;;;;;;;;;;;18.80;43.20;;;;;;1514386;78;710;-74
2024/03/01 07:59:21;;;;;;;;;;;18.80;43.10;;;;;;1509961;77;655;-77
2024/03/01 08:01:23;;;;;;;;;;;18.70;43.20;;;;;;1514537;77;1166;-77
2024/03/01 08:03:24;;;;;;;;;;;18.70;43.20;;;;;;1503637;78;690;-77
2024/03/01 08:05:26;;;;;;;;;;;18.70;43.20;;;;;;1521610;78;1928;-75
2024/03/01 08:07:28;;;;;;;;;;;18.70;43.20;;;;;;1516242;78;691;-76
2024/03/01 08:09:36;;;;;;;;;;;18.70;43.20;;;;;;1507391;78;703;-74
2024/03/01 08:11:42;;;;;;;;;;;18.70;43.20;;;;;;1516197;77;1649;-75
2024/03/01 08:13:44;;;;;;;;;;;18.70;43.20;;;;;;1505944;78;652;-76
2024/03/01 08:15:46;;;;;;;;;;;18.70;43.10;;;;;;1510760;78;682;-77
2024/03/01 08:17:48;;;;;;;;;;;18.70;43.10;;;;;;1492801;76;1560;-77
2024/03/01 08:19:50;;;;;;;;;;;18.70;43.20;;;;;;1480943;78;787;-75
2024/03/01 08:21:53;;;;;;;;;;;18.70;43.10;;;;;;1489174;78;1182;-75
2024/03/01 08:23:55;;;;;;;;;;;18.70;43.20;;;;;;1490508;78;671;-76
2024/03/01 08:25:57;;;;;;;;;;;18.80;43.20;;;;;;1490940;78;1935;-75
2024/03/01 08:27:59;;;;;;;;;;;18.70;43.20;;;;;;1481853;78;733;-78
2024/03/01 08:30:01;;;;;;;;;;;18.70;43.20;;;;;;1493815;78;1124;-77
2024/03/01 08:32:04;;;;;;;;;;;18.80;43.20;;;;;;1455687;79;902;-75
2024/03/01 08:34:10;;;;;;;;;;;18.70;43.10;;;;;;1474011;78;1186;-78
2024/03/01 08:36:12;;;;;;;;;;;18.80;43.10;;;;;;1482291;78;1574;-76
2024/03/01 08:38:32;;;;;;;;;;;18.70;43.20;;;;;;1470924;78;635;-74
2024/03/01 08:40:35;;;;;;;;;;;18.80;43.10;;;;;;1475227;78;1140;-75
2024/03/01 08:42:37;;;;;;;;;;;18.80;43.20;;;;;;1473826;78;774;-71
2024/03/01 08:44:58;;;;;;;;;;;18.80;43.20;;;;;;1485529;78;691;-73
2024/03/01 08:46:59;;;;;;;;;;;18.80;43.20;;;;;;1482520;78;1662;-76
2024/03/01 08:49:03;;;;;;;;;;;18.80;43.20;;;;;;1478200;78;781;-75
2024/03/01 08:51:05;;;;;;;;;;;18.80;43.20;;;;;;1473423;78;1160;-77
2024/03/01 08:53:14;;;;;;;;;;;18.80;43.10;;;;;;1486150;78;668;-78
2024/03/01 08:55:33;;;;;;;;;;;18.80;43.20;;;;;;1471209;78;1188;-76
2024/03/01 08:57:35;;;;;;;;;;;18.80;43.20;;;;;;1474554;78;677;-74
2024/03/01 08:59:44;;;;;;;;;;;18.80;43.10;;;;;;1474511;78;740;-76
2024/03/01 09:01:47;;;;;;;;;;;18.80;43.20;;;;;;1477952;78;1199;-76
2024/03/01 09:03:49;;;;;;;;;;;18.80;43.20;;;;;;1466843;78;705;-76
2024/03/01 09:05:52;;;;;;;;;;;18.80;43.10;;;;;;1472491;78;1932;-78
2024/03/01 09:07:54;;;;;;;;;;;18.80;43.10;;;;;;1474799;78;711;-75
2024/03/01 09:09:55;;;;;;;;;;;18.80;43.10;;;;;;1467121;78;746;-72
2024/03/01 09:11:57;;;;;;;;;;;18.80;43.20;;;;;;1476863;78;1147;-72
2024/03/01 09:13:59;;;;;;;;;;;18.80;43.20;;;;;;1471281;78;690;-73
2024/03/01 09:16:01;;;;;;;;;;;18.90;43.30;;;;;;1479231;78;723;-75
2024/03/01 09:18:03;;;;;;;;;;;18.90;43.30;;;;;;1490187;77;1017;-76
2024/03/01 09:20:06;;;;;;;;;;;18.90;43.30;;;;;;1526335;77;1226;-77
2024/03/01 09:22:07;;;;;;;;;;;18.80;43.10;;;;;;1526254;77;736;-76
2024/03/01 09:24:11;;;;;;;;;;;18.90;43.20;;;;;;1530281;77;765;-71
2024/03/01 09:26:13;;;;;;;;;;;18.80;43.10;;;;;;1521464;77;1917;-72
2024/03/01 09:28:15;;;;;;;;;;;18.80;43.10;;;;;;1527572;77;735;-74
2024/03/01 09:30:17;;;;;;;;;;;18.90;43.20;;;;;;1525451;77;1145;-74
2024/03/01 09:32:19;;;;;;;;;;;18.90;43.20;;;;;;1496877;79;1618;-78
2024/03/01 09:34:21;;;;;;;;;;;18.90;43.10;;;;;;1516298;77;665;-72
2024/03/01 09:36:23;;;;;;;;;;;18.90;43.20;;;;;;1529708;77;771;-77
2024/03/01 09:38:26;;;;;;;;;;;18.90;43.20;;;;;;1523575;77;743;-78
2024/03/01 09:40:39;;;;;;;;;;;18.90;43.20;;;;;;1523741;77;1163;-74
2024/03/01 09:42:45;;;;;;;;;;;18.80;43.10;;;;;;1520000;77;1231;-77
2024/03/01 09:44:55;;;;;;;;;;;18.90;43.20;;;;;;1521979;77;691;-76
2024/03/01 09:47:15;;;;;;;;;;;18.90;43.20;;;;;;1509030;77;1929;-77
2024/03/01 09:49:27;;;;;;;;;;;18.90;43.20;;;;;;1529435;77;662;-77
2024/03/01 09:51:34;;;;;;;;;;;18.90;43.20;;;;;;1518712;77;1202;-77
2024/03/01 09:53:43;;;;;;;;;;;18.90;43.20;;;;;;1528303;77;551;-75
2024/03/01 09:55:47;;;;;;;;;;;18.90;43.20;;;;;;1516367;77;717;-78
2024/03/01 09:57:51;;;;;;;;;;;18.90;43.20;;;;;;1524867;77;684;-76
2024/03/01 10:00:03;;;;;;;;;;;18.90;43.10;;;;;;1528350;77;719;-74
2024/03/01 10:02:06;;;;;;;;;;;18.90;43.10;;;;;;1513362;77;1635;-75
2024/03/01 10:04:13;;;;;;;;;;;18.90;43.10;;;;;;1526526;77;1991;-75
2024/03/01 10:06:22;;;;;;;;;;;18.90;43.10;;;;;;1526385;77;1946;-74
2024/03/01 10:08:42;;;;;;;;;;;18.90;43.20;;;;;;1521063;77;1372;-75
2024/03/01 10:10:48;;;;;;;;;;;18.80;43.10;;;;;;1524284;77;1159;-77
2024/03/01 10:12:52;;;;;;;;;;;18.90;43.10;;;;;;1522980;77;1572;-74
2024/03/01 10:14:58;;;;;;;;;;;18.90;43.10;;;;;;1519046;77;1133;-75
2024/03/01 10:17:02;;;;;;;;;;;18.90;43.10;;;;;;1513817;77;2250;-77
2024/03/01 10:19:22;;;;;;;;;;;18.90;43.10;;;;;;1517119;77;1377;-77
2024/03/01 10:21:31;;;;;;;;;;;18.90;43.10;;;;;;1517686;77;1178;-75
2024/03/01 10:23:38;;;;;;;;;;;18.90;43.10;;;;;;1530479;77;1170;-77
2024/03/01 10:25:58;;;;;;;;;;;18.90;43.10;;;;;;1515783;77;1936;-75
2024/03/01 10:28:04;;;;;;;;;;;18.90;43.10;;;;;;1520617;77;1537;-78
2024/03/01 10:30:07;;;;;;;;;;;18.80;43.00;;;;;;1516095;77;1108;-74
2024/03/01 10:32:14;;;;;;;;;;;18.90;43.10;;;;;;1511746;77;752;-76
2024/03/01 10:34:17;;;;;;;;;;;18.80;43.10;;;;;;1514899;77;745;-73
2024/03/01 10:36:30;;;;;;;;;;;18.80;43.00;;;;;;1523655;77;792;-78
2024/03/01 10:38:33;;;;;;;;;;;18.90;43.10;;;;;;1484435;79;1153;-74
2024/03/01 10:40:36;;;;;;;;;;;18.90;43.10;;;;;;1525000;77;1643;-72
2024/03/01 10:42:41;;;;;;;;;;;18.90;43.10;;;;;;1492089;79;736;-78
2024/03/01 10:44:45;;;;;;;;;;;18.80;43.10;;;;;;1527164;77;1762;-71
2024/03/01 10:46:49;;;;;;;;;;;18.80;43.00;;;;;;1511452;77;1941;-72
2024/03/01 10:48:58;;;;;;;;;;;18.80;43.00;;;;;;1529113;77;1930;-77
2024/03/01 10:51:01;;;;;;;;;;;18.80;43.00;;;;;;1524700;77;1113;-75
2024/03/01 10:53:04;;;;;;;;;;;18.80;43.00;;;;;;1531007;77;715;-77
2024/03/01 10:55:10;;;;;;;;;;;18.80;43.00;;;;;;1525654;77;777;-77
2024/03/01 10:57:11;;;;;;;;;;;18.80;43.00;;;;;;1516359;77;1656;-76
2024/03/01 10:59:18;;;;;;;;;;;18.80;43.00;;;;;;1516785;77;672;-77
2024/03/01 11:01:24;;;;;;;;;;;18.80;43.00;;;;;;1518446;77;1984;-75
2024/03/01 11:03:42;;;;;;;;;;;18.90;43.10;;;;;;1525993;77;1573;-75
2024/03/01 11:05:46;;;;;;;;;;;18.90;43.10;;;;;;1515579;77;1947;-75
2024/03/01 11:07:49;;;;;;;;;;;18.80;43.00;;;;;;1526944;77;1871;-77
2024/03/01 11:09:58;;;;;;;;;;;18.80;43.00;;;;;;1528103;77;659;-77
2024/03/01 11:12:11;;;;;;;;;;;18.80;43.00;;;;;;1519321;77;698;-77
2024/03/01 11:14:13;;;;;;;;;;;18.80;43.00;;;;;;1516030;77;1502;-76
2024/03/01 11:16:16;;;;;;;;;;;18.80;43.00;;;;;;1521488;77;705;-76
2024/03/01 11:18:23;;;;;;;;;;;18.80;42.90;;;;;;1527564;77;688;-76
2024/03/01 11:20:26;;;;;;;;;;;18.80;43.00;;;;;;1514739;78;1156;-77
2024/03/01 11:22:29;;;;;;;;;;;18.80;43.00;;;;;;1514334;78;719;-77
2024/03/01 11:24:31;;;;;;;;;;;18.80;43.00;;;;;;1516630;78;1324;-77
2024/03/01 11:26:35;;;;;;;;;;;18.80;43.00;;;;;;1511144;78;1946;-76
2024/03/01 11:28:37;;;;;;;;;;;18.80;43.00;;;;;;1508175;78;756;-78
2024/03/01 11:30:40;;;;;;;;;;;18.80;42.90;;;;;;1513926;78;1172;-78
2024/03/01 11:32:42;;;;;;;;;;;18.80;43.00;;;;;;1511179;78;851;-75
2024/03/01 11:34:49;;;;;;;;;;;18.80;43.00;;;;;;1479369;79;735;-75
2024/03/01 11:36:52;;;;;;;;;;;18.90;43.10;;;;;;1482640;78;1836;-78
2024/03/01 11:38:56;;;;;;;;;;;18.80;43.00;;;;;;1511918;78;961;-76
2024/03/01 11:41:05;;;;;;;;;;;18.90;43.00;;;;;;1507855;78;1120;-78
2024/03/01 11:43:10;;;;;;;;;;;18.90;43.10;;;;;;1504499;78;773;-78
2024/03/01 11:45:22;;;;;;;;;;;18.90;43.10;;;;;;1503951;78;758;-76
2024/03/01 11:47:29;;;;;;;;;;;18.90;43.10;;;;;;1508339;78;1986;-71
2024/03/01 11:49:45;;;;;;;;;;;18.90;43.10;;;;;;1513593;78;804;-76
2024/03/01 11:51:51;;;;;;;;;;;18.90;42.80;;;;;;1509983;77;1101;-75
2024/03/01 11:54:10;;;;;;;;;;;18.90;43.10;;;;;;1510680;78;695;-78
2024/03/01 11:56:14;;;;;;;;;;;18.90;43.10;;;;;;1502074;78;1112;-77
2024/03/01 11:58:30;;;;;;;;;;;18.90;43.10;;;;;;1509474;78;942;-76
2024/03/01 12:00:46;;;;;;;;;;;18.90;43.10;;;;;;1486994;78;1189;-76
2024/03/01 12:02:58;;;;;;;;;;;18.90;43.10;;;;;;1473500;78;940;-77
2024/03/01 12:05:07;;;;;;;;;;;18.90;43.10;;;;;;1510795;78;753;-78
2024/03/01 12:07:11;;;;;;;;;;;18.90;43.10;;;;;;1511384;78;1896;-78
2024/03/01 12:09:17;;;;;;;;;;;18.90;43.10;;;;;;1513408;78;740;-79
2024/03/01 12:11:37;;;;;;;;;;;18.90;43.10;;;;;;1518379;78;1118;-77
2024/03/01 12:13:41;;;;;;;;;;;18.90;43.10;;;;;;1511598;78;760;-78
2024/03/01 12:15:45;;;;;;;;;;;18.90;43.10;;;;;;1503713;78;741;-77